sensor_id;sensor_type;location;lat;lon;timestamp;temperature;humidity
15343;DHT22;7771;48.478;8.936;2023-08-20T00:00:31;23.60;99.90
15343;DHT22;7771;48.478;8.936;2023-08-20T00:03:03;23.50;99.90
15343;DHT22;7771;48.478;8.936;2023-08-20T00:05:25;23.50;99.90
15343;DHT22;7771;48.478;8.936;2023-08-20T00:07:53;23.40;99.90
15343;DHT22;7771;48.478;8.936;2023-08-20T00:10:19;23.40;99.90
15343;DHT22;7771;48.478;8.936;2023-08-20T00:12:46;23.40;99.90
15343;DHT22;7771;48.478;8.936;2023-08-20T00:15:14;23.40;99.90
15343;DHT22;7771;48.478;8.936;2023-08-20T00:17:41;23.30;99.90
15343;DHT22;7771;48.478;8.936;2023-08-20T00:20:09;23.30;99.90
15343;DHT22;7771;48.478;8.936;2023-08-20T00:22:37;23.30;99.90
15343;DHT22;7771;48.478;8.936;2023-08-20T00:25:04;23.20;99.90
15343;DHT22;7771;48.478;8.936;2023-08-20T00:27:32;23.30;99.90
15343;DHT22;7771;48.478;8.936;2023-08-20T00:30:00;23.30;99.90
15343;DHT22;7771;48.478;8.936;2023-08-20T00:32:28;23.20;99.90
15343;DHT22;7771;48.478;8.936;2023-08-20T00:34:56;23.20;99.90
15343;DHT22;7771;48.478;8.936;2023-08-20T00:37:22;23.20;99.90
15343;DHT22;7771;48.478;8.936;2023-08-20T00:39:49;23.20;99.90
15343;DHT22;7771;48.478;8.936;2023-08-20T00:42:17;23.10;99.90
15343;DHT22;7771;48.478;8.936;2023-08-20T00:44:44;23.10;99.90
15343;DHT22;7771;48.478;8.936;2023-08-20T00:47:11;23.10;99.90
15343;DHT22;7771;48.478;8.936;2023-08-20T00:49:38;23.00;99.90
15343;DHT22;7771;48.478;8.936;2023-08-20T00:52:05;23.00;99.90
15343;DHT22;7771;48.478;8.936;2023-08-20T00:54:31;23.00;99.90
15343;DHT22;7771;48.478;8.936;2023-08-20T00:56:59;22.90;99.90
15343;DHT22;7771;48.478;8.936;2023-08-20T00:59:27;22.90;99.90
15343;DHT22;7771;48.478;8.936;2023-08-20T01:01:55;22.90;99.90
15343;DHT22;7771;48.478;8.936;2023-08-20T01:04:22;22.80;99.90
15343;DHT22;7771;48.478;8.936;2023-08-20T01:08:23;22.80;99.90
15343;DHT22;7771;48.478;8.936;2023-08-20T01:15:24;22.70;99.90
15343;DHT22;7771;48.478;8.936;2023-08-20T01:17:51;22.70;99.90
15343;DHT22;7771;48.478;8.936;2023-08-20T01:20:17;22.70;99.90
15343;DHT22;7771;48.478;8.936;2023-08-20T01:23:03;22.70;99.90
15343;DHT22;7771;48.478;8.936;2023-08-20T01:25:37;22.70;99.90
15343;DHT22;7771;48.478;8.936;2023-08-20T01:28:03;22.70;99.90
15343;DHT22;7771;48.478;8.936;2023-08-20T01:30:29;22.60;99.90
15343;DHT22;7771;48.478;8.936;2023-08-20T01:32:56;22.60;99.90
15343;DHT22;7771;48.478;8.936;2023-08-20T01:35:24;22.60;99.90
15343;DHT22;7771;48.478;8.936;2023-08-20T01:37:50;22.60;99.90
15343;DHT22;7771;48.478;8.936;2023-08-20T01:40:17;22.60;99.90
15343;DHT22;7771;48.478;8.936;2023-08-20T01:42:44;22.60;99.90
15343;DHT22;7771;48.478;8.936;2023-08-20T01:45:11;22.60;99.90
15343;DHT22;7771;48.478;8.936;2023-08-20T01:47:39;22.50;99.90
15343;DHT22;7771;48.478;8.936;2023-08-20T01:52:35;22.50;99.90
15343;DHT22;7771;48.478;8.936;2023-08-20T01:55:02;22.50;99.90
15343;DHT22;7771;48.478;8.936;2023-08-20T01:57:28;22.50;99.90
15343;DHT22;7771;48.478;8.936;2023-08-20T01:59:55;22.50;99.90
15343;DHT22;7771;48.478;8.936;2023-08-20T02:02:22;22.50;99.90
15343;DHT22;7771;48.478;8.936;2023-08-20T02:04:49;22.50;99.90
15343;DHT22;7771;48.478;8.936;2023-08-20T02:07:16;22.40;99.90
15343;DHT22;7771;48.478;8.936;2023-08-20T02:09:43;22.40;99.90
15343;DHT22;7771;48.478;8.936;2023-08-20T02:14:40;22.40;99.90
15343;DHT22;7771;48.478;8.936;2023-08-20T02:17:06;22.40;99.90
15343;DHT22;7771;48.478;8.936;2023-08-20T02:19:34;22.30;99.90
15343;DHT22;7771;48.478;8.936;2023-08-20T02:22:02;22.30;99.90
15343;DHT22;7771;48.478;8.936;2023-08-20T02:24:29;22.30;99.90
15343;DHT22;7771;48.478;8.936;2023-08-20T02:29:24;22.30;99.90
15343;DHT22;7771;48.478;8.936;2023-08-20T02:31:51;22.20;99.90
15343;DHT22;7771;48.478;8.936;2023-08-20T02:34:17;22.20;99.90
15343;DHT22;7771;48.478;8.936;2023-08-20T02:36:45;22.20;99.90
15343;DHT22;7771;48.478;8.936;2023-08-20T02:39:12;22.20;99.90
15343;DHT22;7771;48.478;8.936;2023-08-20T02:41:39;22.20;99.90
15343;DHT22;7771;48.478;8.936;2023-08-20T02:44:05;22.20;99.90
15343;DHT22;7771;48.478;8.936;2023-08-20T02:46:33;22.10;99.90
15343;DHT22;7771;48.478;8.936;2023-08-20T02:49:00;22.10;99.90
15343;DHT22;7771;48.478;8.936;2023-08-20T02:51:27;22.10;99.90
15343;DHT22;7771;48.478;8.936;2023-08-20T02:53:54;22.00;99.90
15343;DHT22;7771;48.478;8.936;2023-08-20T02:56:20;22.00;99.90
15343;DHT22;7771;48.478;8.936;2023-08-20T02:58:48;22.00;99.90
15343;DHT22;7771;48.478;8.936;2023-08-20T03:01:18;22.00;99.90
15343;DHT22;7771;48.478;8.936;2023-08-20T03:03:44;22.00;99.90
15343;DHT22;7771;48.478;8.936;2023-08-20T03:06:10;21.90;99.90
15343;DHT22;7771;48.478;8.936;2023-08-20T03:08:38;21.90;99.90
15343;DHT22;7771;48.478;8.936;2023-08-20T03:11:04;21.90;99.90
15343;DHT22;7771;48.478;8.936;2023-08-20T03:13:32;21.90;99.90
15343;DHT22;7771;48.478;8.936;2023-08-20T03:15:58;21.80;99.90
15343;DHT22;7771;48.478;8.936;2023-08-20T03:18:26;21.80;99.90
15343;DHT22;7771;48.478;8.936;2023-08-20T03:20:54;21.80;99.90
15343;DHT22;7771;48.478;8.936;2023-08-20T03:23:19;21.80;99.90
15343;DHT22;7771;48.478;8.936;2023-08-20T03:25:46;21.80;99.90
15343;DHT22;7771;48.478;8.936;2023-08-20T03:28:13;21.80;99.90
15343;DHT22;7771;48.478;8.936;2023-08-20T03:30:39;21.80;99.90
15343;DHT22;7771;48.478;8.936;2023-08-20T03:33:07;21.80;99.90
15343;DHT22;7771;48.478;8.936;2023-08-20T03:35:35;21.80;99.90
15343;DHT22;7771;48.478;8.936;2023-08-20T03:38:01;21.80;99.90
15343;DHT22;7771;48.478;8.936;2023-08-20T03:40:28;21.80;99.90
15343;DHT22;7771;48.478;8.936;2023-08-20T03:42:55;21.80;99.90
15343;DHT22;7771;48.478;8.936;2023-08-20T03:45:22;21.80;99.90
15343;DHT22;7771;48.478;8.936;2023-08-20T03:47:48;21.70;99.90
15343;DHT22;7771;48.478;8.936;2023-08-20T03:50:15;21.70;99.90
15343;DHT22;7771;48.478;8.936;2023-08-20T03:52:43;21.70;99.90
15343;DHT22;7771;48.478;8.936;2023-08-20T03:57:38;21.70;99.90
15343;DHT22;7771;48.478;8.936;2023-08-20T04:00:06;21.70;99.90
15343;DHT22;7771;48.478;8.936;2023-08-20T04:02:34;21.70;99.90
15343;DHT22;7771;48.478;8.936;2023-08-20T04:05:02;21.60;99.90
15343;DHT22;7771;48.478;8.936;2023-08-20T04:07:29;21.70;99.90
15343;DHT22;7771;48.478;8.936;2023-08-20T04:09:56;21.60;99.90
15343;DHT22;7771;48.478;8.936;2023-08-20T04:12:23;21.60;99.90
15343;DHT22;7771;48.478;8.936;2023-08-20T04:14:49;21.60;99.90
15343;DHT22;7771;48.478;8.936;2023-08-20T04:17:17;21.60;99.90
15343;DHT22;7771;48.478;8.936;2023-08-20T04:19:44;21.50;99.90
15343;DHT22;7771;48.478;8.936;2023-08-20T04:22:12;21.50;99.90
15343;DHT22;7771;48.478;8.936;2023-08-20T04:24:39;21.50;99.90
15343;DHT22;7771;48.478;8.936;2023-08-20T04:27:06;21.40;99.90
15343;DHT22;7771;48.478;8.936;2023-08-20T04:29:33;21.40;99.90
15343;DHT22;7771;48.478;8.936;2023-08-20T04:32:01;21.40;99.90
15343;DHT22;7771;48.478;8.936;2023-08-20T04:34:28;21.40;99.90
15343;DHT22;7771;48.478;8.936;2023-08-20T04:36:54;21.40;99.90
15343;DHT22;7771;48.478;8.936;2023-08-20T04:39:21;21.40;99.90
15343;DHT22;7771;48.478;8.936;2023-08-20T04:41:48;21.40;99.90
15343;DHT22;7771;48.478;8.936;2023-08-20T04:44:15;21.40;99.90
15343;DHT22;7771;48.478;8.936;2023-08-20T04:49:11;21.30;99.90
15343;DHT22;7771;48.478;8.936;2023-08-20T04:51:40;21.30;99.90
15343;DHT22;7771;48.478;8.936;2023-08-20T04:54:06;21.30;99.90
15343;DHT22;7771;48.478;8.936;2023-08-20T04:56:34;21.30;99.90
15343;DHT22;7771;48.478;8.936;2023-08-20T04:59:00;21.30;99.90
15343;DHT22;7771;48.478;8.936;2023-08-20T05:01:27;21.20;99.90
15343;DHT22;7771;48.478;8.936;2023-08-20T05:03:54;21.20;99.90
15343;DHT22;7771;48.478;8.936;2023-08-20T05:06:22;21.20;99.90
15343;DHT22;7771;48.478;8.936;2023-08-20T05:08:49;21.20;99.90
15343;DHT22;7771;48.478;8.936;2023-08-20T05:11:17;21.30;99.90
15343;DHT22;7771;48.478;8.936;2023-08-20T05:13:44;21.30;99.90
15343;DHT22;7771;48.478;8.936;2023-08-20T05:16:10;21.30;99.90
15343;DHT22;7771;48.478;8.936;2023-08-20T05:18:37;21.40;99.90
15343;DHT22;7771;48.478;8.936;2023-08-20T05:23:32;21.40;99.90
15343;DHT22;7771;48.478;8.936;2023-08-20T05:25:59;21.40;99.90
15343;DHT22;7771;48.478;8.936;2023-08-20T05:28:25;21.50;99.90
15343;DHT22;7771;48.478;8.936;2023-08-20T05:30:55;21.50;99.90
15343;DHT22;7771;48.478;8.936;2023-08-20T05:33:21;21.60;99.90
15343;DHT22;7771;48.478;8.936;2023-08-20T05:35:49;21.60;99.90
15343;DHT22;7771;48.478;8.936;2023-08-20T05:38:16;21.60;99.90
15343;DHT22;7771;48.478;8.936;2023-08-20T05:40:44;21.70;99.90
15343;DHT22;7771;48.478;8.936;2023-08-20T05:43:12;21.80;99.90
15343;DHT22;7771;48.478;8.936;2023-08-20T05:45:38;21.80;99.90
15343;DHT22;7771;48.478;8.936;2023-08-20T05:48:06;21.90;99.90
15343;DHT22;7771;48.478;8.936;2023-08-20T05:50:33;22.00;99.90
15343;DHT22;7771;48.478;8.936;2023-08-20T05:53:00;22.00;99.90
15343;DHT22;7771;48.478;8.936;2023-08-20T05:55:28;22.10;99.90
15343;DHT22;7771;48.478;8.936;2023-08-20T05:57:54;22.20;99.90
15343;DHT22;7771;48.478;8.936;2023-08-20T06:02:49;22.30;99.90
15343;DHT22;7771;48.478;8.936;2023-08-20T06:05:16;22.40;99.90
15343;DHT22;7771;48.478;8.936;2023-08-20T06:07:44;22.40;99.90
15343;DHT22;7771;48.478;8.936;2023-08-20T06:10:11;22.40;99.90
15343;DHT22;7771;48.478;8.936;2023-08-20T06:12:38;22.50;99.90
15343;DHT22;7771;48.478;8.936;2023-08-20T06:15:05;22.60;99.90
15343;DHT22;7771;48.478;8.936;2023-08-20T06:17:33;22.60;99.90
15343;DHT22;7771;48.478;8.936;2023-08-20T06:19:59;22.70;99.90
15343;DHT22;7771;48.478;8.936;2023-08-20T06:24:54;22.80;99.90
15343;DHT22;7771;48.478;8.936;2023-08-20T06:27:22;22.90;99.90
15343;DHT22;7771;48.478;8.936;2023-08-20T06:29:49;23.10;99.90
15343;DHT22;7771;48.478;8.936;2023-08-20T06:32:16;23.20;99.90
15343;DHT22;7771;48.478;8.936;2023-08-20T06:34:42;23.30;99.90
15343;DHT22;7771;48.478;8.936;2023-08-20T06:37:10;23.50;99.90
15343;DHT22;7771;48.478;8.936;2023-08-20T06:39:38;23.70;99.90
15343;DHT22;7771;48.478;8.936;2023-08-20T06:42:04;23.80;99.90
15343;DHT22;7771;48.478;8.936;2023-08-20T06:44:32;24.10;99.90
15343;DHT22;7771;48.478;8.936;2023-08-20T06:46:58;24.20;99.90
15343;DHT22;7771;48.478;8.936;2023-08-20T06:49:25;24.40;99.90
15343;DHT22;7771;48.478;8.936;2023-08-20T06:51:52;24.60;99.90
15343;DHT22;7771;48.478;8.936;2023-08-20T06:54:18;24.80;99.90
15343;DHT22;7771;48.478;8.936;2023-08-20T06:56:45;25.00;99.90
15343;DHT22;7771;48.478;8.936;2023-08-20T06:59:12;25.10;99.90
15343;DHT22;7771;48.478;8.936;2023-08-20T07:01:39;25.20;99.90
15343;DHT22;7771;48.478;8.936;2023-08-20T07:04:05;25.30;99.90
15343;DHT22;7771;48.478;8.936;2023-08-20T07:06:33;25.50;99.90
15343;DHT22;7771;48.478;8.936;2023-08-20T07:09:01;25.60;99.90
15343;DHT22;7771;48.478;8.936;2023-08-20T07:11:27;25.80;99.90
15343;DHT22;7771;48.478;8.936;2023-08-20T07:13:55;26.00;99.90
15343;DHT22;7771;48.478;8.936;2023-08-20T07:16:22;26.20;99.90
15343;DHT22;7771;48.478;8.936;2023-08-20T07:18:49;26.40;99.90
15343;DHT22;7771;48.478;8.936;2023-08-20T07:21:16;26.90;99.90
15343;DHT22;7771;48.478;8.936;2023-08-20T07:23:43;27.90;99.90
15343;DHT22;7771;48.478;8.936;2023-08-20T07:26:10;28.80;99.90
15343;DHT22;7771;48.478;8.936;2023-08-20T07:28:37;29.40;99.90
15343;DHT22;7771;48.478;8.936;2023-08-20T07:31:10;30.00;99.90
15343;DHT22;7771;48.478;8.936;2023-08-20T07:33:37;30.50;99.90
15343;DHT22;7771;48.478;8.936;2023-08-20T07:36:04;31.20;99.90
15343;DHT22;7771;48.478;8.936;2023-08-20T07:38:32;31.80;99.90
15343;DHT22;7771;48.478;8.936;2023-08-20T07:40:59;32.20;99.90
15343;DHT22;7771;48.478;8.936;2023-08-20T07:43:26;32.70;99.90
15343;DHT22;7771;48.478;8.936;2023-08-20T07:45:52;32.80;99.90
15343;DHT22;7771;48.478;8.936;2023-08-20T07:48:20;33.20;99.90
15343;DHT22;7771;48.478;8.936;2023-08-20T07:50:48;33.80;99.90
15343;DHT22;7771;48.478;8.936;2023-08-20T07:53:16;34.50;99.90
15343;DHT22;7771;48.478;8.936;2023-08-20T07:55:43;35.20;99.30
15343;DHT22;7771;48.478;8.936;2023-08-20T07:58:10;35.70;97.50
15343;DHT22;7771;48.478;8.936;2023-08-20T08:00:38;35.90;96.80
15343;DHT22;7771;48.478;8.936;2023-08-20T08:03:05;35.90;96.30
15343;DHT22;7771;48.478;8.936;2023-08-20T08:05:32;35.80;95.80
15343;DHT22;7771;48.478;8.936;2023-08-20T08:08:00;35.40;95.60
15343;DHT22;7771;48.478;8.936;2023-08-20T08:10:27;35.00;95.50
15343;DHT22;7771;48.478;8.936;2023-08-20T08:12:54;34.50;95.80
15343;DHT22;7771;48.478;8.936;2023-08-20T08:15:20;34.10;96.30
15343;DHT22;7771;48.478;8.936;2023-08-20T08:17:47;33.80;96.80
15343;DHT22;7771;48.478;8.936;2023-08-20T08:20:13;33.60;97.00
15343;DHT22;7771;48.478;8.936;2023-08-20T08:22:40;33.30;97.20
15343;DHT22;7771;48.478;8.936;2023-08-20T08:25:07;33.00;97.50
15343;DHT22;7771;48.478;8.936;2023-08-20T08:27:35;32.60;97.90
15343;DHT22;7771;48.478;8.936;2023-08-20T08:30:02;32.30;98.40
15343;DHT22;7771;48.478;8.936;2023-08-20T08:32:29;32.10;99.30
15343;DHT22;7771;48.478;8.936;2023-08-20T08:34:56;32.10;99.60
15343;DHT22;7771;48.478;8.936;2023-08-20T08:37:24;32.00;99.40
15343;DHT22;7771;48.478;8.936;2023-08-20T08:39:52;32.00;99.50
15343;DHT22;7771;48.478;8.936;2023-08-20T08:42:19;31.90;99.50
15343;DHT22;7771;48.478;8.936;2023-08-20T08:44:45;31.80;99.90
15343;DHT22;7771;48.478;8.936;2023-08-20T08:47:12;31.70;99.90
15343;DHT22;7771;48.478;8.936;2023-08-20T08:49:40;31.60;99.90
15343;DHT22;7771;48.478;8.936;2023-08-20T08:52:07;31.70;99.90
15343;DHT22;7771;48.478;8.936;2023-08-20T08:54:33;31.70;99.90
15343;DHT22;7771;48.478;8.936;2023-08-20T08:57:02;31.70;99.90
15343;DHT22;7771;48.478;8.936;2023-08-20T08:59:28;31.70;99.90
15343;DHT22;7771;48.478;8.936;2023-08-20T09:01:56;31.90;99.90
15343;DHT22;7771;48.478;8.936;2023-08-20T09:04:23;32.10;99.90
15343;DHT22;7771;48.478;8.936;2023-08-20T09:06:51;32.20;99.80
15343;DHT22;7771;48.478;8.936;2023-08-20T09:09:18;32.30;99.60
15343;DHT22;7771;48.478;8.936;2023-08-20T09:11:45;32.40;99.70
15343;DHT22;7771;48.478;8.936;2023-08-20T09:14:22;32.50;99.70
15343;DHT22;7771;48.478;8.936;2023-08-20T09:16:58;32.50;99.00
15343;DHT22;7771;48.478;8.936;2023-08-20T09:19:24;32.70;98.80
15343;DHT22;7771;48.478;8.936;2023-08-20T09:21:50;32.80;98.90
15343;DHT22;7771;48.478;8.936;2023-08-20T09:24:17;32.90;98.70
15343;DHT22;7771;48.478;8.936;2023-08-20T09:26:45;33.00;98.30
15343;DHT22;7771;48.478;8.936;2023-08-20T09:29:11;33.10;98.30
15343;DHT22;7771;48.478;8.936;2023-08-20T09:31:38;33.10;98.10
15343;DHT22;7771;48.478;8.936;2023-08-20T09:34:05;33.20;98.00
15343;DHT22;7771;48.478;8.936;2023-08-20T09:36:33;33.30;97.90
15343;DHT22;7771;48.478;8.936;2023-08-20T09:38:59;33.30;97.90
15343;DHT22;7771;48.478;8.936;2023-08-20T09:41:25;33.40;97.70
15343;DHT22;7771;48.478;8.936;2023-08-20T09:43:55;33.50;97.70
15343;DHT22;7771;48.478;8.936;2023-08-20T09:46:19;33.60;97.50
15343;DHT22;7771;48.478;8.936;2023-08-20T09:48:46;33.60;97.50
15343;DHT22;7771;48.478;8.936;2023-08-20T09:51:14;33.70;97.70
15343;DHT22;7771;48.478;8.936;2023-08-20T09:53:48;33.80;97.40
15343;DHT22;7771;48.478;8.936;2023-08-20T09:56:20;33.80;96.90
15343;DHT22;7771;48.478;8.936;2023-08-20T09:58:42;33.80;96.60
15343;DHT22;7771;48.478;8.936;2023-08-20T10:01:09;33.80;96.40
15343;DHT22;7771;48.478;8.936;2023-08-20T10:03:36;33.80;96.60
15343;DHT22;7771;48.478;8.936;2023-08-20T10:06:03;33.70;96.50
15343;DHT22;7771;48.478;8.936;2023-08-20T10:08:30;33.80;96.20
15343;DHT22;7771;48.478;8.936;2023-08-20T10:10:57;33.80;95.80
15343;DHT22;7771;48.478;8.936;2023-08-20T10:13:24;33.80;95.70
15343;DHT22;7771;48.478;8.936;2023-08-20T10:15:51;33.80;95.50
15343;DHT22;7771;48.478;8.936;2023-08-20T10:18:19;33.80;95.60
15343;DHT22;7771;48.478;8.936;2023-08-20T10:20:46;33.90;95.60
15343;DHT22;7771;48.478;8.936;2023-08-20T10:23:13;34.00;94.90
15343;DHT22;7771;48.478;8.936;2023-08-20T10:25:41;34.00;94.50
15343;DHT22;7771;48.478;8.936;2023-08-20T10:28:24;34.00;94.50
15343;DHT22;7771;48.478;8.936;2023-08-20T10:33:27;33.90;94.10
15343;DHT22;7771;48.478;8.936;2023-08-20T10:35:54;33.80;93.20
15343;DHT22;7771;48.478;8.936;2023-08-20T10:38:20;33.80;93.50
15343;DHT22;7771;48.478;8.936;2023-08-20T10:40:55;33.80;92.70
15343;DHT22;7771;48.478;8.936;2023-08-20T10:43:33;33.80;93.20
15343;DHT22;7771;48.478;8.936;2023-08-20T10:46:17;33.90;93.30
15343;DHT22;7771;48.478;8.936;2023-08-20T10:48:48;34.00;93.20
15343;DHT22;7771;48.478;8.936;2023-08-20T10:51:14;34.10;92.60
15343;DHT22;7771;48.478;8.936;2023-08-20T10:53:41;34.20;92.60
15343;DHT22;7771;48.478;8.936;2023-08-20T10:56:10;34.30;92.80
15343;DHT22;7771;48.478;8.936;2023-08-20T10:58:38;34.40;92.90
15343;DHT22;7771;48.478;8.936;2023-08-20T11:01:20;34.50;92.90
15343;DHT22;7771;48.478;8.936;2023-08-20T11:03:46;34.50;91.50
15343;DHT22;7771;48.478;8.936;2023-08-20T11:06:12;34.50;91.00
15343;DHT22;7771;48.478;8.936;2023-08-20T11:08:39;34.50;91.40
15343;DHT22;7771;48.478;8.936;2023-08-20T11:11:06;34.50;91.60
15343;DHT22;7771;48.478;8.936;2023-08-20T11:13:34;34.50;91.70
15343;DHT22;7771;48.478;8.936;2023-08-20T11:16:01;34.50;91.40
15343;DHT22;7771;48.478;8.936;2023-08-20T11:18:29;34.60;91.60
15343;DHT22;7771;48.478;8.936;2023-08-20T11:20:56;34.70;91.50
15343;DHT22;7771;48.478;8.936;2023-08-20T11:23:22;34.80;91.60
15343;DHT22;7771;48.478;8.936;2023-08-20T11:25:50;34.80;91.60
15343;DHT22;7771;48.478;8.936;2023-08-20T11:28:16;34.90;91.60
15343;DHT22;7771;48.478;8.936;2023-08-20T11:30:43;35.00;91.80
15343;DHT22;7771;48.478;8.936;2023-08-20T11:33:09;35.00;91.80
15343;DHT22;7771;48.478;8.936;2023-08-20T11:35:36;35.20;91.30
15343;DHT22;7771;48.478;8.936;2023-08-20T11:38:03;35.10;91.40
15343;DHT22;7771;48.478;8.936;2023-08-20T11:40:29;35.10;91.40
15343;DHT22;7771;48.478;8.936;2023-08-20T11:42:57;35.10;91.60
15343;DHT22;7771;48.478;8.936;2023-08-20T11:45:23;35.10;91.80
15343;DHT22;7771;48.478;8.936;2023-08-20T11:47:55;35.10;91.70
15343;DHT22;7771;48.478;8.936;2023-08-20T11:50:20;35.10;91.40
15343;DHT22;7771;48.478;8.936;2023-08-20T11:52:44;35.10;91.50
15343;DHT22;7771;48.478;8.936;2023-08-20T11:55:11;35.20;91.50
15343;DHT22;7771;48.478;8.936;2023-08-20T11:57:37;35.10;91.20
15343;DHT22;7771;48.478;8.936;2023-08-20T12:00:05;35.10;91.30
15343;DHT22;7771;48.478;8.936;2023-08-20T12:02:35;35.20;91.30
15343;DHT22;7771;48.478;8.936;2023-08-20T12:05:01;35.20;91.20
15343;DHT22;7771;48.478;8.936;2023-08-20T12:07:28;35.20;91.30
15343;DHT22;7771;48.478;8.936;2023-08-20T12:09:55;35.30;91.10
15343;DHT22;7771;48.478;8.936;2023-08-20T12:12:22;35.40;90.60
15343;DHT22;7771;48.478;8.936;2023-08-20T12:14:48;35.40;90.40
15343;DHT22;7771;48.478;8.936;2023-08-20T12:17:17;35.40;90.10
15343;DHT22;7771;48.478;8.936;2023-08-20T12:19:44;35.40;90.00
15343;DHT22;7771;48.478;8.936;2023-08-20T12:22:11;35.50;89.30
15343;DHT22;7771;48.478;8.936;2023-08-20T12:24:38;35.40;88.60
15343;DHT22;7771;48.478;8.936;2023-08-20T12:27:05;35.50;88.30
15343;DHT22;7771;48.478;8.936;2023-08-20T12:29:31;35.50;88.70
15343;DHT22;7771;48.478;8.936;2023-08-20T12:31:58;35.50;87.60
15343;DHT22;7771;48.478;8.936;2023-08-20T12:34:24;35.60;87.80
15343;DHT22;7771;48.478;8.936;2023-08-20T12:36:51;35.60;87.90
15343;DHT22;7771;48.478;8.936;2023-08-20T12:39:18;35.70;87.80
15343;DHT22;7771;48.478;8.936;2023-08-20T12:41:45;35.80;87.00
15343;DHT22;7771;48.478;8.936;2023-08-20T12:44:11;35.80;87.50
15343;DHT22;7771;48.478;8.936;2023-08-20T12:46:39;35.80;88.00
15343;DHT22;7771;48.478;8.936;2023-08-20T12:49:06;35.80;84.90
15343;DHT22;7771;48.478;8.936;2023-08-20T12:51:34;35.80;85.30
15343;DHT22;7771;48.478;8.936;2023-08-20T12:54:01;35.80;85.30
15343;DHT22;7771;48.478;8.936;2023-08-20T12:56:28;35.80;84.80
15343;DHT22;7771;48.478;8.936;2023-08-20T12:58:55;35.80;83.80
15343;DHT22;7771;48.478;8.936;2023-08-20T13:01:23;35.80;83.60
15343;DHT22;7771;48.478;8.936;2023-08-20T13:03:49;35.80;82.70
15343;DHT22;7771;48.478;8.936;2023-08-20T13:06:16;35.80;82.80
15343;DHT22;7771;48.478;8.936;2023-08-20T13:08:44;35.80;83.10
15343;DHT22;7771;48.478;8.936;2023-08-20T13:11:10;35.80;82.60
15343;DHT22;7771;48.478;8.936;2023-08-20T13:13:38;35.90;82.00
15343;DHT22;7771;48.478;8.936;2023-08-20T13:16:05;35.90;81.60
15343;DHT22;7771;48.478;8.936;2023-08-20T13:18:32;35.90;81.90
15343;DHT22;7771;48.478;8.936;2023-08-20T13:20:59;35.80;81.90
15343;DHT22;7771;48.478;8.936;2023-08-20T13:23:26;35.90;82.30
15343;DHT22;7771;48.478;8.936;2023-08-20T13:25:53;36.00;82.30
15343;DHT22;7771;48.478;8.936;2023-08-20T13:28:19;36.00;82.30
15343;DHT22;7771;48.478;8.936;2023-08-20T13:30:46;36.10;81.90
15343;DHT22;7771;48.478;8.936;2023-08-20T13:33:13;36.20;81.40
15343;DHT22;7771;48.478;8.936;2023-08-20T13:35:41;36.20;81.20
15343;DHT22;7771;48.478;8.936;2023-08-20T13:38:07;36.20;81.10
15343;DHT22;7771;48.478;8.936;2023-08-20T13:40:34;36.20;81.80
15343;DHT22;7771;48.478;8.936;2023-08-20T13:43:02;36.20;81.90
15343;DHT22;7771;48.478;8.936;2023-08-20T13:45:29;36.30;81.40
15343;DHT22;7771;48.478;8.936;2023-08-20T13:47:56;36.30;81.80
15343;DHT22;7771;48.478;8.936;2023-08-20T13:50:24;36.30;81.50
15343;DHT22;7771;48.478;8.936;2023-08-20T13:52:51;36.40;81.10
15343;DHT22;7771;48.478;8.936;2023-08-20T13:55:17;36.40;81.00
15343;DHT22;7771;48.478;8.936;2023-08-20T13:57:45;36.50;81.10
15343;DHT22;7771;48.478;8.936;2023-08-20T14:00:12;36.50;80.60
15343;DHT22;7771;48.478;8.936;2023-08-20T14:02:39;36.50;80.50
15343;DHT22;7771;48.478;8.936;2023-08-20T14:05:06;36.60;80.50
15343;DHT22;7771;48.478;8.936;2023-08-20T14:07:33;36.60;80.10
15343;DHT22;7771;48.478;8.936;2023-08-20T14:10:01;36.60;80.70
15343;DHT22;7771;48.478;8.936;2023-08-20T14:12:28;36.50;80.10
15343;DHT22;7771;48.478;8.936;2023-08-20T14:14:55;36.50;80.90
15343;DHT22;7771;48.478;8.936;2023-08-20T14:17:23;36.60;80.90
15343;DHT22;7771;48.478;8.936;2023-08-20T14:19:50;36.60;80.60
15343;DHT22;7771;48.478;8.936;2023-08-20T14:22:17;36.60;80.80
15343;DHT22;7771;48.478;8.936;2023-08-20T14:24:45;36.50;80.30
15343;DHT22;7771;48.478;8.936;2023-08-20T14:27:11;36.60;80.50
15343;DHT22;7771;48.478;8.936;2023-08-20T14:29:40;36.60;80.70
15343;DHT22;7771;48.478;8.936;2023-08-20T14:32:05;36.60;80.50
15343;DHT22;7771;48.478;8.936;2023-08-20T14:34:32;36.50;81.30
15343;DHT22;7771;48.478;8.936;2023-08-20T14:36:59;36.50;80.90
15343;DHT22;7771;48.478;8.936;2023-08-20T14:39:27;36.40;81.00
15343;DHT22;7771;48.478;8.936;2023-08-20T14:41:53;36.40;80.10
15343;DHT22;7771;48.478;8.936;2023-08-20T14:44:20;36.30;80.20
15343;DHT22;7771;48.478;8.936;2023-08-20T14:46:47;36.20;80.50
15343;DHT22;7771;48.478;8.936;2023-08-20T14:49:14;36.20;80.80
15343;DHT22;7771;48.478;8.936;2023-08-20T14:51:40;36.20;80.60
15343;DHT22;7771;48.478;8.936;2023-08-20T14:54:08;36.20;80.90
15343;DHT22;7771;48.478;8.936;2023-08-20T14:56:35;36.10;80.80
15343;DHT22;7771;48.478;8.936;2023-08-20T14:59:03;36.10;81.20
15343;DHT22;7771;48.478;8.936;2023-08-20T15:01:30;36.00;81.00
15343;DHT22;7771;48.478;8.936;2023-08-20T15:03:56;36.00;82.00
15343;DHT22;7771;48.478;8.936;2023-08-20T15:06:24;36.10;83.80
15343;DHT22;7771;48.478;8.936;2023-08-20T15:08:51;36.00;84.10
15343;DHT22;7771;48.478;8.936;2023-08-20T15:11:18;36.00;84.40
15343;DHT22;7771;48.478;8.936;2023-08-20T15:13:46;35.90;84.60
15343;DHT22;7771;48.478;8.936;2023-08-20T15:16:13;35.90;84.70
15343;DHT22;7771;48.478;8.936;2023-08-20T15:18:40;35.70;84.10
15343;DHT22;7771;48.478;8.936;2023-08-20T15:21:07;35.60;84.40
15343;DHT22;7771;48.478;8.936;2023-08-20T15:23:34;35.40;84.80
15343;DHT22;7771;48.478;8.936;2023-08-20T15:26:01;35.30;85.60
15343;DHT22;7771;48.478;8.936;2023-08-20T15:28:28;35.10;85.70
15343;DHT22;7771;48.478;8.936;2023-08-20T15:30:55;35.00;85.70
15343;DHT22;7771;48.478;8.936;2023-08-20T15:33:21;34.90;86.20
15343;DHT22;7771;48.478;8.936;2023-08-20T15:38:16;34.60;87.10
15343;DHT22;7771;48.478;8.936;2023-08-20T15:40:43;34.40;87.30
15343;DHT22;7771;48.478;8.936;2023-08-20T15:43:10;34.30;87.70
15343;DHT22;7771;48.478;8.936;2023-08-20T15:45:37;34.10;87.90
15343;DHT22;7771;48.478;8.936;2023-08-20T15:48:04;34.00;88.30
15343;DHT22;7771;48.478;8.936;2023-08-20T15:50:31;33.90;88.80
15343;DHT22;7771;48.478;8.936;2023-08-20T15:52:58;33.80;89.40
15343;DHT22;7771;48.478;8.936;2023-08-20T15:55:26;33.70;89.80
15343;DHT22;7771;48.478;8.936;2023-08-20T15:57:53;33.70;90.10
15343;DHT22;7771;48.478;8.936;2023-08-20T16:00:20;33.70;90.00
15343;DHT22;7771;48.478;8.936;2023-08-20T16:02:46;33.70;89.90
15343;DHT22;7771;48.478;8.936;2023-08-20T16:05:13;33.70;89.90
15343;DHT22;7771;48.478;8.936;2023-08-20T16:07:40;33.70;90.10
15343;DHT22;7771;48.478;8.936;2023-08-20T16:10:07;33.60;90.10
15343;DHT22;7771;48.478;8.936;2023-08-20T16:12:36;33.50;89.70
15343;DHT22;7771;48.478;8.936;2023-08-20T16:15:03;33.40;90.00